Time;durP1;ratioP1;P1;durP2;ratioP2;P2;SDS_P1;SDS_P2;PMS_P1;PMS_P2;Temp;Humidity;BMP_temperature;BMP_pressure;BME280_temperature;BME280_humidity;BME280_pressure;Samples;Min_cycle;Max_cycle;Signal;HPM_P1;HPM_P2
2023/07/25 00:00:54;;;;;;;4.53;2.65;;;;;;;;;;5114652;28;20024;-69
2023/07/25 00:03:23;;;;;;;2.83;2.60;;;;;;;;;;5109512;28;20367;-69
2023/07/25 00:05:52;;;;;;;2.88;2.38;;;;;;;;;;5114660;28;20023;-69
2023/07/25 00:08:22;;;;;;;4.07;2.85;;;;;;;;;;5114533;28;20046;-69
2023/07/25 00:10:49;;;;;;;3.60;2.80;;;;;;;;;;5114695;28;20047;-69
2023/07/25 00:13:15;;;;;;;3.65;2.70;;;;;;;;;;5114037;28;20476;-69
2023/07/25 00:15:41;;;;;;;3.00;2.55;;;;;;;;;;5114525;28;20022;-69
2023/07/25 00:18:11;;;;;;;4.85;2.90;;;;;;;;;;5114433;28;20464;-69
2023/07/25 00:20:39;;;;;;;4.40;2.40;;;;;;;;;;5109756;27;20380;-69
2023/07/25 00:23:05;;;;;;;4.50;3.30;;;;;;;;;;5115421;27;20103;-69
2023/07/25 00:25:31;;;;;;;4.90;2.97;;;;;;;;;;5113331;28;20059;-69
2023/07/25 00:27:56;;;;;;;5.50;2.92;;;;;;;;;;5114777;28;20016;-69
2023/07/25 00:30:22;;;;;;;6.65;3.58;;;;;;;;;;5113071;28;20415;-69
2023/07/25 00:32:48;;;;;;;6.07;3.15;;;;;;;;;;5114450;28;20015;-69
2023/07/25 00:35:14;;;;;;;4.18;2.58;;;;;;;;;;5113372;28;20426;-69
2023/07/25 00:37:40;;;;;;;4.15;2.70;;;;;;;;;;5107987;27;20027;-69
2023/07/25 00:40:07;;;;;;;2.90;2.50;;;;;;;;;;5113741;28;20089;-69
2023/07/25 00:42:33;;;;;;;3.72;2.70;;;;;;;;;;5113823;28;20027;-69
2023/07/25 00:44:59;;;;;;;2.78;2.28;;;;;;;;;;5113472;28;20043;-69
2023/07/25 00:47:25;;;;;;;3.25;2.88;;;;;;;;;;5113684;28;20024;-69
2023/07/25 00:49:51;;;;;;;4.20;2.85;;;;;;;;;;5113737;28;20070;-69
2023/07/25 00:52:17;;;;;;;6.90;3.45;;;;;;;;;;5113129;28;20466;-69
2023/07/25 00:54:48;;;;;;;6.85;4.00;;;17.30;99.90;;;;;;5105970;28;20104;-69
2023/07/25 00:57:19;;;;;;;7.40;4.38;;;17.20;99.90;;;;;;5093107;28;20034;-69
2023/07/25 00:59:45;;;;;;;8.70;4.53;;;17.10;99.90;;;;;;5093282;28;20031;-68
2023/07/25 01:02:12;;;;;;;9.32;4.10;;;17.10;99.90;;;;;;5093031;28;20016;-70
2023/07/25 01:04:39;;;;;;;8.65;3.92;;;17.00;99.90;;;;;;5093069;28;20024;-69
2023/07/25 01:07:05;;;;;;;5.18;3.83;;;16.90;99.90;;;;;;5093407;28;20089;-68
2023/07/25 01:09:42;;;;;;;8.40;4.45;;;16.80;99.90;;;;;;5091743;28;20032;-69
2023/07/25 01:12:09;;;;;;;6.43;3.83;;;16.60;99.90;;;;;;5088065;28;20089;-69
2023/07/25 01:14:36;;;;;;;5.55;3.78;;;16.60;99.90;;;;;;5092690;28;20032;-69
2023/07/25 01:17:13;;;;;;;4.60;3.75;;;16.50;99.90;;;;;;5093407;28;20480;-69
2023/07/25 01:19:40;;;;;;;5.40;4.13;;;16.40;99.90;;;;;;5092989;28;20093;-69
2023/07/25 01:22:08;;;;;;;5.78;4.60;;;16.40;99.90;;;;;;5104402;28;20015;-69
2023/07/25 01:24:40;;;;;;;11.50;5.18;;;16.30;99.90;;;;;;5094704;28;20015;-69
2023/07/25 01:27:06;;;;;;;5.78;4.65;;;16.20;99.90;;;;;;5113656;28;20023;-69
2023/07/25 01:29:31;;;;;;;6.20;4.47;;;16.10;99.90;;;;;;5098724;28;20039;-69
2023/07/25 01:31:57;;;;;;;5.75;4.47;;;16.10;99.90;;;;;;5093338;28;20035;-69
2023/07/25 01:34:25;;;;;;;6.20;5.10;;;;;;;;;;5091559;28;20103;-69
2023/07/25 01:37:24;;;;;;;6.38;4.57;;;;;;;;;;5093131;28;20020;-69
2023/07/25 01:39:52;;;;;;;5.38;4.38;;;;;;;;;;5093286;28;20024;-69
2023/07/25 01:42:24;;;;;;;5.43;4.22;;;;;;;;;;5111970;28;20520;-69
2023/07/25 01:44:52;;;;;;;5.95;4.38;;;;;;;;;;5112035;27;20361;-69
2023/07/25 01:47:18;;;;;;;6.35;4.55;;;;;;;;;;5085492;28;20047;-69
2023/07/25 01:49:44;;;;;;;7.70;4.50;;;;;;;;;;5092396;28;20079;-69
2023/07/25 01:52:10;;;;;;;6.32;4.57;;;;;;;;;;5096766;28;20135;-70
2023/07/25 01:54:36;;;;;;;7.45;4.70;;;;;;;;;;5112587;28;20016;-70
2023/07/25 01:57:02;;;;;;;4.75;3.80;;;;;;;;;;5113162;28;20099;-69
2023/07/25 01:59:29;;;;;;;7.05;3.63;;;;;;;;;;5111777;28;20023;-69
2023/07/25 02:01:55;;;;;;;5.53;3.75;;;;;;;;;;5112863;28;20023;-69
2023/07/25 02:04:21;;;;;;;4.25;3.55;;;;;;;;;;5111724;28;20019;-69
2023/07/25 02:06:47;;;;;;;7.75;3.60;;;;;;;;;;5112850;28;20393;-69
2023/07/25 02:09:12;;;;;;;5.43;3.67;;;;;;;;;;5087805;28;20157;-70
2023/07/25 02:11:38;;;;;;;4.55;3.53;;;;;;;;;;5107572;28;20019;-70
2023/07/25 02:14:04;;;;;;;4.80;3.67;;;;;;;;;;5112544;28;20015;-69
2023/07/25 02:16:33;;;;;;;3.15;2.67;;;;;;;;;;5111488;28;20034;-69
2023/07/25 02:18:59;;;;;;;4.57;3.03;;;;;;;;;;5112711;28;20019;-69
2023/07/25 02:21:25;;;;;;;3.10;2.65;;;;;;;;;;5104878;28;20016;-69
2023/07/25 02:23:51;;;;;;;2.95;2.67;;;;;;;;;;5092142;28;20016;-68
2023/07/25 02:26:17;;;;;;;3.00;2.65;;;;;;;;;;5090892;28;20074;-68
2023/07/25 02:28:43;;;;;;;3.72;2.75;;;;;;;;;;5085908;28;20376;-68
2023/07/25 02:31:09;;;;;;;3.15;2.85;;;;;;;;;;5090897;28;20310;-68
2023/07/25 02:33:35;;;;;;;4.28;3.13;;;;;;;;;;5091719;28;20031;-68
2023/07/25 02:36:02;;;;;;;3.97;2.90;;;;;;;;;;5091447;28;20070;-68
2023/07/25 02:38:28;;;;;;;3.25;2.95;;;;;;;;;;5091294;28;20170;-68
2023/07/25 02:40:54;;;;;;;3.90;3.13;;;;;;;;;;5100614;28;20020;-68
2023/07/25 02:43:22;;;;;;;3.15;2.70;;;;;;;;;;5113145;28;20139;-68
2023/07/25 02:45:48;;;;;;;3.50;2.97;;;;;;;;;;5110511;28;20452;-68
2023/07/25 02:48:14;;;;;;;3.60;3.13;;;;;;;;;;5110926;28;20026;-68
2023/07/25 02:50:40;;;;;;;4.50;3.03;;;;;;;;;;5111641;28;20031;-68
2023/07/25 02:53:06;;;;;;;3.70;3.00;;;;;;;;;;5112226;28;20023;-67
2023/07/25 02:55:32;;;;;;;3.83;2.65;;;;;;;;;;5111141;28;20113;-67
2023/07/25 02:57:58;;;;;;;3.58;3.17;;;;;;;;;;5112018;28;20345;-67
2023/07/25 03:00:24;;;;;;;3.25;2.95;;;;;;;;;;5110875;28;20095;-67
2023/07/25 03:02:50;;;;;;;7.40;3.00;;;;;;;;;;5105446;28;20019;-67
2023/07/25 03:05:16;;;;;;;3.42;3.13;;;;;;;;;;5110684;28;20022;-67
2023/07/25 03:07:43;;;;;;;3.20;2.90;;;;;;;;;;5111906;28;20012;-67
2023/07/25 03:10:09;;;;;;;4.45;3.15;;;;;;;;;;5111094;28;20416;-67
2023/07/25 03:12:35;;;;;;;3.40;2.72;;;;;;;;;;5112063;28;20107;-68
2023/07/25 03:15:01;;;;;;;6.68;2.85;;;15.90;99.90;;;;;;5111399;28;20043;-68
2023/07/25 03:17:29;;;;;;;4.35;2.90;;;16.20;99.90;;;;;;5111097;28;20032;-68
2023/07/25 03:19:55;;;;;;;4.45;3.00;;;16.10;99.90;;;;;;5105046;28;20106;-67
2023/07/25 03:22:20;;;;;;;5.25;3.50;;;16.10;99.90;;;;;;5132090;28;20107;-69
2023/07/25 03:24:46;;;;;;;7.65;3.80;;;16.10;99.90;;;;;;5131839;28;20019;-68
2023/07/25 03:27:12;;;;;;;4.85;3.50;;;16.10;99.90;;;;;;5131699;28;20026;-69
2023/07/25 03:29:38;;;;;;;5.15;3.75;;;16.20;99.90;;;;;;5131996;28;20443;-68
2023/07/25 03:32:03;;;;;;;4.88;3.63;;;16.20;99.90;;;;;;5132577;28;20026;-68
2023/07/25 03:34:29;;;;;;;3.80;3.30;;;16.20;99.90;;;;;;5133026;27;20027;-70
2023/07/25 03:36:54;;;;;;;7.20;3.97;;;16.30;99.90;;;;;;5118782;27;20050;-68
2023/07/25 03:39:20;;;;;;;5.00;3.47;;;16.20;99.90;;;;;;5114198;28;20102;-69
2023/07/25 03:41:46;;;;;;;7.80;3.35;;;16.30;99.90;;;;;;5132579;27;20015;-69
2023/07/25 03:44:20;;;;;;;3.78;3.17;;;16.30;99.90;;;;;;5134589;27;20043;-69
2023/07/25 03:46:46;;;;;;;3.30;3.00;;;16.40;99.90;;;;;;5136169;27;20088;-69
2023/07/25 03:49:12;;;;;;;3.70;3.03;;;16.40;99.90;;;;;;5134855;27;20031;-70
2023/07/25 03:51:38;;;;;;;3.33;2.72;;;16.40;99.90;;;;;;5136063;27;20103;-68
2023/07/25 03:54:04;;;;;;;3.33;2.70;;;16.40;99.90;;;;;;5135755;27;20107;-68
2023/07/25 03:56:30;;;;;;;4.00;2.80;;;16.40;99.90;;;;;;5108015;27;20034;-69
2023/07/25 03:58:55;;;;;;;5.85;3.33;;;16.40;99.90;;;;;;5115384;28;20024;-69
2023/07/25 04:01:21;;;;;;;4.55;2.80;;;16.50;99.90;;;;;;5114067;28;20039;-69
2023/07/25 04:03:47;;;;;;;6.50;3.03;;;16.50;99.90;;;;;;5115088;28;20027;-69
2023/07/25 04:06:12;;;;;;;4.13;2.88;;;16.50;99.90;;;;;;5113996;28;20073;-69
2023/07/25 04:08:38;;;;;;;2.78;2.58;;;16.50;99.90;;;;;;5115246;28;20058;-69
2023/07/25 04:11:04;;;;;;;3.92;2.60;;;16.50;99.90;;;;;;5108411;28;20032;-69
2023/07/25 04:13:29;;;;;;;3.22;2.60;;;16.50;99.90;;;;;;5114057;28;20100;-69
2023/07/25 04:15:55;;;;;;;3.75;2.67;;;16.50;99.90;;;;;;5114627;28;20020;-69
2023/07/25 04:18:20;;;;;;;3.10;2.80;;;16.50;99.90;;;;;;5114274;28;20023;-70
2023/07/25 04:20:46;;;;;;;3.03;2.70;;;16.50;99.90;;;;;;5114641;28;20024;-70
2023/07/25 04:23:11;;;;;;;4.07;2.90;;;16.50;99.90;;;;;;5113575;28;20027;-69
2023/07/25 04:25:37;;;;;;;3.70;3.28;;;16.50;99.90;;;;;;5116312;27;20364;-68
2023/07/25 04:28:03;;;;;;;2.78;2.55;;;16.50;99.90;;;;;;5113273;27;20023;-68
2023/07/25 04:30:28;;;;;;;5.20;3.22;;;16.50;99.90;;;;;;5113155;28;20031;-68
2023/07/25 04:32:54;;;;;;;4.85;2.90;;;16.60;99.90;;;;;;5114775;28;20020;-68
2023/07/25 04:35:19;;;;;;;5.07;2.67;;;16.60;99.90;;;;;;5113107;28;20025;-68
2023/07/25 04:37:45;;;;;;;3.25;2.80;;;16.60;99.90;;;;;;5114520;28;20058;-68
2023/07/25 04:40:11;;;;;;;3.55;2.65;;;16.60;99.90;;;;;;5116968;27;20023;-69
2023/07/25 04:42:37;;;;;;;3.92;2.80;;;16.60;99.90;;;;;;5127996;27;20046;-68
2023/07/25 04:45:03;;;;;;;4.63;2.60;;;16.60;99.90;;;;;;5110535;28;20446;-70
2023/07/25 04:47:29;;;;;;;2.95;2.50;;;16.60;99.90;;;;;;5113806;28;20028;-70
2023/07/25 04:49:54;;;;;;;4.50;2.78;;;16.60;99.90;;;;;;5113827;28;20030;-70
2023/07/25 04:52:20;;;;;;;5.38;3.20;;;16.60;99.90;;;;;;5113613;28;20020;-70
2023/07/25 04:54:46;;;;;;;4.07;2.75;;;16.70;99.90;;;;;;5113849;28;20423;-70
2023/07/25 04:57:11;;;;;;;4.72;2.90;;;16.60;99.90;;;;;;5113251;28;20024;-70
2023/07/25 04:59:37;;;;;;;7.63;2.97;;;16.70;99.90;;;;;;5109166;28;20111;-70
2023/07/25 05:02:02;;;;;;;5.28;2.92;;;16.70;99.90;;;;;;5111622;28;20426;-70
2023/07/25 05:04:28;;;;;;;3.03;2.72;;;16.70;99.90;;;;;;5112577;28;20135;-69
2023/07/25 05:06:54;;;;;;;3.42;2.83;;;16.70;99.90;;;;;;5113847;28;20455;-70
2023/07/25 05:09:20;;;;;;;3.22;2.92;;;16.70;99.90;;;;;;5112578;28;20028;-70
2023/07/25 05:11:51;;;;;;;3.17;2.65;;;16.70;99.90;;;;;;5113722;28;20024;-70
2023/07/25 05:14:17;;;;;;;5.00;2.90;;;16.80;99.90;;;;;;5112537;28;20356;-70
2023/07/25 05:16:42;;;;;;;3.97;2.85;;;16.80;99.90;;;;;;5090654;28;20020;-70
2023/07/25 05:19:08;;;;;;;3.00;2.60;;;16.90;99.90;;;;;;5134011;27;20380;-71
2023/07/25 05:21:34;;;;;;;4.07;3.45;;;16.90;99.90;;;;;;5126012;27;20016;-70
2023/07/25 05:23:59;;;;;;;4.88;2.78;;;16.90;99.90;;;;;;5113393;28;20030;-70
2023/07/25 05:26:25;;;;;;;4.50;3.25;;;16.90;99.90;;;;;;5112235;28;20023;-70
2023/07/25 05:28:50;;;;;;;3.72;2.83;;;16.90;99.90;;;;;;5113466;28;20046;-70
2023/07/25 05:31:16;;;;;;;4.40;3.30;;;17.00;99.90;;;;;;5106444;28;20139;-70
2023/07/25 05:33:41;;;;;;;5.40;3.40;;;17.00;99.90;;;;;;5113421;28;20026;-70
2023/07/25 05:36:07;;;;;;;7.25;3.40;;;17.00;99.90;;;;;;5112298;28;20059;-70
2023/07/25 05:38:32;;;;;;;4.90;3.45;;;17.00;99.90;;;;;;5113021;28;20016;-70
2023/07/25 05:40:58;;;;;;;7.10;3.90;;;17.10;99.90;;;;;;5112196;28;20432;-69
2023/07/25 05:43:24;;;;;;;3.38;3.05;;;17.10;99.90;;;;;;5111900;28;20056;-70
2023/07/25 05:45:50;;;;;;;5.05;3.00;;;17.20;99.90;;;;;;5112459;28;20051;-72
2023/07/25 05:48:16;;;;;;;3.65;3.28;;;17.20;99.90;;;;;;5107604;27;20016;-72
2023/07/25 05:50:41;;;;;;;3.67;2.92;;;17.20;99.90;;;;;;5111192;28;20028;-77
2023/07/25 05:53:07;;;;;;;5.55;3.65;;;17.30;99.90;;;;;;5112916;28;20024;-81
2023/07/25 05:55:32;;;;;;;4.80;3.45;;;17.30;99.90;;;;;;5111736;28;20449;-76
2023/07/25 05:57:58;;;;;;;6.28;3.40;;;17.40;99.90;;;;;;5112315;28;20046;-72
2023/07/25 06:00:23;;;;;;;9.48;4.28;;;17.30;99.90;;;;;;5111771;28;20024;-72
2023/07/25 06:02:49;;;;;;;7.75;4.45;;;17.10;99.90;;;;;;5112806;28;20413;-71
2023/07/25 06:05:15;;;;;;;9.68;4.63;;;16.80;99.90;;;;;;5107605;28;20034;-72
2023/07/25 06:07:40;;;;;;;11.93;6.43;;;16.50;99.90;;;;;;5110107;28;20024;-72
2023/07/25 06:10:06;;;;;;;15.60;6.28;;;16.40;99.90;;;;;;5112432;28;20031;-71
2023/07/25 06:12:32;;;;;;;6.95;4.53;;;16.20;99.90;;;;;;5111995;28;20023;-76
2023/07/25 06:14:58;;;;;;;12.93;5.45;;;16.10;99.90;;;;;;5103592;28;20028;-71
2023/07/25 06:17:23;;;;;;;9.55;5.20;;;16.10;99.90;;;;;;5113958;27;20015;-72
2023/07/25 06:19:49;;;;;;;6.63;4.30;;;16.10;99.90;;;;;;5081271;28;20024;-72
2023/07/25 06:22:15;;;;;;;6.38;4.40;;;16.10;99.90;;;;;;5097397;28;20126;-71
2023/07/25 06:24:41;;;;;;;7.75;4.55;;;16.00;99.90;;;;;;5098594;28;20111;-73
2023/07/25 06:27:07;;;;;;;7.28;5.10;;;16.10;99.90;;;;;;5105661;28;20036;-73
2023/07/25 06:29:33;;;;;;;6.70;4.75;;;16.00;99.90;;;;;;5111534;28;20088;-73
2023/07/25 06:31:58;;;;;;;10.27;4.95;;;16.10;99.90;;;;;;5103448;28;20023;-69
2023/07/25 06:34:24;;;;;;;6.95;4.72;;;16.10;99.90;;;;;;5110643;28;20051;-72
2023/07/25 06:36:50;;;;;;;5.60;4.13;;;16.20;99.90;;;;;;5112018;28;20031;-74
2023/07/25 06:39:15;;;;;;;6.47;5.22;;;16.20;99.90;;;;;;5095098;28;20023;-76
2023/07/25 06:41:41;;;;;;;7.28;4.82;;;16.10;99.90;;;;;;5093080;28;20204;-70
2023/07/25 06:44:06;;;;;;;8.70;4.28;;;16.10;99.90;;;;;;5087323;28;20032;-71
2023/07/25 06:46:32;;;;;;;11.40;5.03;;;16.10;99.90;;;;;;5105059;28;20012;-69
2023/07/25 06:48:58;;;;;;;6.18;4.25;;;16.20;99.90;;;;;;5083975;28;20465;-69
2023/07/25 06:51:23;;;;;;;11.52;4.85;;;16.20;99.90;;;;;;5076360;28;20020;-70
2023/07/25 06:53:49;;;;;;;6.32;4.47;;;16.20;99.90;;;;;;5091141;28;20019;-74
2023/07/25 06:56:14;;;;;;;6.43;4.90;;;16.20;99.90;;;;;;5082470;28;20024;-72
2023/07/25 06:58:40;;;;;;;6.82;4.97;;;16.20;99.90;;;;;;5082883;28;20027;-76
2023/07/25 07:01:06;;;;;;;8.82;4.75;;;16.10;99.90;;;;;;5090143;28;20020;-79
2023/07/25 07:03:32;;;;;;;8.77;4.60;;;16.00;99.90;;;;;;5090345;28;20020;-71
2023/07/25 07:05:58;;;;;;;6.10;4.95;;;16.00;99.90;;;;;;5090334;28;20395;-69
2023/07/25 07:08:24;;;;;;;7.78;4.78;;;16.00;99.90;;;;;;5068519;28;20073;-68
2023/07/25 07:10:53;;;;;;;6.25;4.25;;;15.90;99.90;;;;;;5094707;28;20459;-69
2023/07/25 07:13:20;;;;;;;9.55;4.93;;;16.00;99.90;;;;;;5093743;28;20026;-77
2023/07/25 07:15:47;;;;;;;7.07;5.28;;;15.90;99.90;;;;;;5090555;28;20116;-74
2023/07/25 07:18:12;;;;;;;7.68;4.78;;;15.80;99.90;;;;;;5094726;28;20032;-75
2023/07/25 07:20:38;;;;;;;8.77;5.43;;;15.80;99.90;;;;;;5101716;28;20104;-73
2023/07/25 07:23:04;;;;;;;9.27;5.20;;;15.80;99.90;;;;;;5087677;28;20047;-78
2023/07/25 07:25:30;;;;;;;6.85;5.10;;;15.90;99.90;;;;;;5092874;28;20067;-72
2023/07/25 07:27:55;;;;;;;10.27;6.32;;;16.00;99.90;;;;;;5094331;28;20099;-72
2023/07/25 07:30:21;;;;;;;6.85;5.13;;;16.00;99.90;;;;;;5092150;28;20081;-72
2023/07/25 07:32:47;;;;;;;8.10;5.03;;;16.10;99.90;;;;;;5094450;28;20038;-71
2023/07/25 07:35:13;;;;;;;8.73;4.97;;;16.20;99.90;;;;;;5093137;28;20050;-71
2023/07/25 07:37:38;;;;;;;10.77;4.47;;;16.20;99.90;;;;;;5094435;28;20031;-71
2023/07/25 07:40:05;;;;;;;6.82;4.93;;;16.20;99.90;;;;;;5093283;28;20039;-71
2023/07/25 07:42:31;;;;;;;8.07;4.72;;;16.30;99.90;;;;;;5088247;28;20023;-71
2023/07/25 07:44:56;;;;;;;5.22;4.13;;;16.30;99.90;;;;;;5109161;28;20055;-71
2023/07/25 07:47:22;;;;;;;8.00;4.90;;;16.40;99.90;;;;;;5113590;28;20011;-71
2023/07/25 07:49:47;;;;;;;10.80;7.03;;;16.40;99.90;;;;;;5114568;28;20345;-71
2023/07/25 07:52:13;;;;;;;9.23;4.70;;;16.50;99.90;;;;;;5113993;28;20019;-72
2023/07/25 07:54:39;;;;;;;6.80;4.47;;;16.60;99.90;;;;;;5119527;27;20024;-71
2023/07/25 07:57:04;;;;;;;5.30;4.65;;;16.80;99.90;;;;;;5114361;28;20020;-71
2023/07/25 07:59:30;;;;;;;4.88;3.75;;;17.00;99.90;;;;;;5113711;28;20578;-72
2023/07/25 08:01:56;;;;;;;7.20;4.13;;;17.10;99.90;;;;;;5114580;28;20020;-71
2023/07/25 08:04:21;;;;;;;5.45;3.97;;;17.30;99.90;;;;;;5112550;28;20023;-73
2023/07/25 08:06:47;;;;;;;4.60;3.17;;;17.40;99.90;;;;;;5114317;28;20020;-71
2023/07/25 08:09:13;;;;;;;4.63;3.35;;;17.50;99.90;;;;;;5113188;28;20020;-74
2023/07/25 08:11:38;;;;;;;2.80;2.38;;;17.60;99.90;;;;;;5114603;28;20390;-71
2023/07/25 08:14:04;;;;;;;3.38;2.35;;;17.80;99.90;;;;;;5114005;28;20023;-71
2023/07/25 08:16:29;;;;;;;2.75;2.35;;;17.90;99.90;;;;;;5113221;28;20034;-71
2023/07/25 08:18:55;;;;;;;6.00;2.45;;;18.10;99.90;;;;;;5111736;27;20031;-72
2023/07/25 08:21:21;;;;;;;4.43;2.80;;;18.20;99.90;;;;;;5107305;28;20026;-71
2023/07/25 08:23:46;;;;;;;4.70;2.10;;;18.40;99.90;;;;;;5115192;28;20019;-70
2023/07/25 08:26:12;;;;;;;3.35;1.98;;;18.40;99.90;;;;;;5115001;28;20054;-71
2023/07/25 08:28:37;;;;;;;6.65;2.92;;;18.40;99.90;;;;;;5116659;28;20027;-68
2023/07/25 08:31:06;;;;;;;3.30;2.00;;;18.40;99.90;;;;;;5116666;27;20125;-70
2023/07/25 08:33:34;;;;;;;3.50;2.17;;;18.40;99.90;;;;;;5114833;28;20032;-71
2023/07/25 08:36:00;;;;;;;5.45;2.00;;;18.30;99.90;;;;;;5107639;28;20016;-70
2023/07/25 08:38:26;;;;;;;2.97;2.20;;;18.30;99.90;;;;;;5110650;28;20016;-71
2023/07/25 08:41:04;;;;;;;3.22;2.35;;;18.30;99.90;;;;;;5113764;28;20402;-70
2023/07/25 08:43:35;;;;;;;4.90;2.60;;;18.30;99.90;;;;;;5113121;28;20086;-70
2023/07/25 08:46:08;;;;;;;4.13;2.42;;;18.40;99.90;;;;;;5113689;28;20023;-71
2023/07/25 08:48:37;;;;;;;4.82;2.40;;;18.60;99.90;;;;;;5113700;28;20098;-71
2023/07/25 08:51:06;;;;;;;4.40;2.40;;;18.90;99.90;;;;;;5112673;28;20115;-70
2023/07/25 08:53:32;;;;;;;3.70;2.03;;;19.10;99.90;;;;;;5112030;28;20020;-72
2023/07/25 08:56:00;;;;;;;3.97;2.22;;;19.30;99.90;;;;;;5112554;28;20055;-70
2023/07/25 08:58:27;;;;;;;4.03;2.13;;;19.60;99.90;;;;;;5094749;28;20086;-70
2023/07/25 09:00:54;;;;;;;4.90;2.60;;;19.90;99.90;;;;;;5112993;28;20026;-71
2023/07/25 09:03:20;;;;;;;2.45;2.03;;;20.00;99.90;;;;;;5113296;28;20026;-71
2023/07/25 09:05:48;;;;;;;4.30;2.13;;;20.10;99.90;;;;;;5113230;28;20016;-70
2023/07/25 09:08:14;;;;;;;4.72;2.42;;;20.10;99.90;;;;;;5112515;28;20051;-70
2023/07/25 09:10:43;;;;;;;3.17;2.30;;;20.10;99.90;;;;;;5112513;28;20062;-71
2023/07/25 09:13:09;;;;;;;3.88;2.22;;;19.90;99.90;;;;;;5112056;28;20020;-76
2023/07/25 09:15:34;;;;;;;3.55;2.13;;;19.70;99.90;;;;;;5112577;28;20018;-70
2023/07/25 09:18:00;;;;;;;3.47;2.28;;;19.40;99.90;;;;;;5112297;27;20135;-71
2023/07/25 09:20:26;;;;;;;4.10;2.10;;;19.20;99.90;;;;;;5111737;28;20534;-70
2023/07/25 09:22:52;;;;;;;2.00;1.73;;;19.10;99.90;;;;;;5112780;28;20418;-71
2023/07/25 09:25:17;;;;;;;4.65;2.22;;;19.00;99.90;;;;;;5111810;28;20016;-70
2023/07/25 09:27:46;;;;;;;5.60;2.05;;;19.00;99.90;;;;;;5094780;28;20023;-70
2023/07/25 09:30:13;;;;;;;2.95;2.03;;;19.00;99.90;;;;;;5110457;28;20040;-70
2023/07/25 09:32:45;;;;;;;5.55;2.50;;;19.10;99.90;;;;;;5111973;28;20452;-70
2023/07/25 09:35:11;;;;;;;4.53;2.05;;;19.20;99.90;;;;;;5102687;28;20016;-76
2023/07/25 09:37:37;;;;;;;4.65;1.67;;;19.40;99.90;;;;;;5112833;28;20060;-71
2023/07/25 09:40:11;;;;;;;3.65;1.88;;;19.60;99.90;;;;;;5093740;28;20042;-71
2023/07/25 09:42:42;;;;;;;4.88;1.73;;;19.80;99.90;;;;;;5112925;28;20015;-70
2023/07/25 09:45:09;;;;;;;4.93;1.88;;;19.80;99.90;;;;;;5093751;28;20044;-75
2023/07/25 09:47:36;;;;;;;2.78;1.75;;;20.00;99.90;;;;;;5091483;28;20024;-69
2023/07/25 09:50:04;;;;;;;4.85;1.95;;;20.10;99.90;;;;;;5093660;28;20547;-72
2023/07/25 09:52:38;;;;;;;4.97;1.85;;;20.30;99.90;;;;;;5095429;28;20086;-71
2023/07/25 09:55:04;;;;;;;3.33;1.70;;;20.40;99.90;;;;;;5091298;28;20423;-73
2023/07/25 09:57:31;;;;;;;2.97;1.70;;;20.50;99.90;;;;;;5086333;28;20024;-72
2023/07/25 09:59:57;;;;;;;2.47;1.42;;;20.50;99.90;;;;;;5085106;28;20047;-72
2023/07/25 10:02:24;;;;;;;3.47;1.77;;;20.70;99.90;;;;;;5083642;28;20471;-71
2023/07/25 10:04:50;;;;;;;4.88;1.92;;;20.90;99.90;;;;;;5094944;28;20520;-72
2023/07/25 10:07:17;;;;;;;6.35;1.92;;;20.90;99.90;;;;;;5088624;28;20020;-72
2023/07/25 10:09:46;;;;;;;3.63;1.40;;;20.90;99.90;;;;;;5073720;28;20028;-71
2023/07/25 10:12:12;;;;;;;3.92;1.88;;;21.00;99.90;;;;;;5081355;28;20028;-70
2023/07/25 10:14:38;;;;;;;2.28;1.75;;;21.00;99.90;;;;;;5082955;28;20443;-71
2023/07/25 10:17:06;;;;;;;3.40;1.88;;;21.00;99.90;;;;;;5071593;28;20020;-71
2023/07/25 10:19:48;;;;;;;2.50;1.50;;;21.00;99.90;;;;;;5088843;28;20024;-70
2023/07/25 10:22:13;;;;;;;2.88;1.45;;;21.10;99.90;;;;;;5077784;28;20020;-71
2023/07/25 10:24:39;;;;;;;3.67;1.48;;;21.30;99.90;;;;;;5091086;28;20452;-71
2023/07/25 10:27:09;;;;;;;4.10;1.75;;;21.60;99.90;;;;;;5076188;28;20468;-71
2023/07/25 10:29:39;;;;;;;5.18;1.27;;;21.70;99.90;;;;;;5085541;28;20024;-71
2023/07/25 10:32:06;;;;;;;3.90;1.48;;;21.80;99.90;;;;;;5090585;28;20032;-71
2023/07/25 10:35:02;;;;;;;3.15;1.70;;;21.90;99.90;;;;;;5090068;28;20032;-71
2023/07/25 10:37:36;;;;;;;4.95;1.40;;;22.10;99.90;;;;;;5072204;28;20036;-70
2023/07/25 10:40:05;;;;;;;4.45;1.52;;;22.30;99.90;;;;;;5089406;28;20032;-70
2023/07/25 10:42:44;;;;;;;2.17;1.17;;;22.30;99.90;;;;;;5089979;28;20042;-70
2023/07/25 10:45:22;;;;;;;2.20;1.48;;;22.40;99.90;;;;;;5106421;28;20361;-70
2023/07/25 10:47:49;;;;;;;2.05;1.40;;;22.30;99.90;;;;;;5110845;28;20055;-70
2023/07/25 10:50:19;;;;;;;1.95;1.33;;;22.30;99.90;;;;;;5110089;28;20049;-70
2023/07/25 10:52:46;;;;;;;1.23;1.13;;;22.10;99.90;;;;;;5111152;28;20058;-70
2023/07/25 10:55:13;;;;;;;2.42;1.30;;;21.60;99.90;;;;;;5101595;28;20024;-70
2023/07/25 10:57:38;;;;;;;3.42;1.73;;;21.20;99.90;;;;;;5113405;28;20016;-70
2023/07/25 11:00:11;;;;;;;3.85;1.60;;;20.70;99.90;;;;;;5109974;28;20019;-70
2023/07/25 11:02:43;;;;;;;3.72;1.70;;;20.30;99.90;;;;;;5111173;28;20478;-71
2023/07/25 11:05:12;;;;;;;3.17;1.60;;;19.90;99.90;;;;;;5111858;28;20043;-72
2023/07/25 11:07:39;;;;;;;3.30;1.50;;;19.50;99.90;;;;;;5115461;28;20460;-71
2023/07/25 11:10:05;;;;;;;5.97;1.75;;;19.20;99.90;;;;;;5111794;28;20027;-71
2023/07/25 11:12:32;;;;;;;1.90;1.25;;;19.00;99.90;;;;;;5108591;28;20431;-71
2023/07/25 11:14:57;;;;;;;2.42;1.40;;;19.00;99.90;;;;;;5111318;28;20028;-71
2023/07/25 11:17:30;;;;;;;1.80;1.20;;;19.10;99.90;;;;;;5115031;28;20020;-70
2023/07/25 11:20:18;;;;;;;3.03;1.40;;;19.50;99.90;;;;;;5111514;28;20028;-71
2023/07/25 11:22:44;;;;;;;1.88;1.20;;;20.10;99.90;;;;;;5092713;28;20076;-71
2023/07/25 11:25:10;;;;;;;1.77;1.30;;;20.70;99.90;;;;;;5109826;28;20395;-71
2023/07/25 11:27:44;;;;;;;4.28;1.30;;;21.40;99.90;;;;;;5112494;28;20027;-70
2023/07/25 11:30:11;;;;;;;4.03;1.30;;;22.00;99.90;;;;;;5107204;28;20032;-71
2023/07/25 11:32:38;;;;;;;2.72;1.17;;;22.40;99.90;;;;;;5110318;28;20050;-71
2023/07/25 11:35:06;;;;;;;4.63;1.60;;;22.50;99.90;;;;;;5110417;28;20039;-72
2023/07/25 11:37:32;;;;;;;2.10;1.02;;;22.70;99.90;;;;;;5109725;28;21485;-71
2023/07/25 11:40:16;;;;;;;1.73;1.33;;;22.80;99.90;;;;;;5109681;28;20460;-71
2023/07/25 11:42:46;;;;;;;1.17;1.00;;;23.00;99.90;;;;;;5110451;28;20031;-71
2023/07/25 11:45:13;;;;;;;2.00;1.10;;;23.20;99.90;;;;;;5104402;28;20039;-71
2023/07/25 11:47:41;;;;;;;3.70;1.00;;;23.20;99.90;;;;;;5107206;28;20015;-71
2023/07/25 11:50:08;;;;;;;1.23;1.00;;;23.10;99.90;;;;;;5108135;28;20019;-72
2023/07/25 11:52:35;;;;;;;1.90;0.90;;;23.00;99.90;;;;;;5108301;28;20047;-68
2023/07/25 11:55:01;;;;;;;1.02;0.90;;;23.10;99.90;;;;;;5110731;28;20028;-70
2023/07/25 11:57:27;;;;;;;5.50;1.08;;;23.20;99.90;;;;;;5120919;27;20027;-71
2023/07/25 11:59:54;;;;;;;1.35;0.80;;;23.30;99.90;;;;;;5126025;27;20359;-71
2023/07/25 12:02:20;;;;;;;2.38;1.10;;;23.30;99.90;;;;;;5113344;28;20046;-70
2023/07/25 12:04:46;;;;;;;2.78;1.08;;;23.30;99.90;;;;;;5115867;27;20024;-70
2023/07/25 12:07:14;;;;;;;3.58;1.10;;;23.50;99.90;;;;;;5112538;28;20032;-69
2023/07/25 12:09:50;;;;;;;4.30;1.00;;;23.70;99.90;;;;;;5112246;28;20024;-70
2023/07/25 12:12:15;;;;;;;1.00;0.90;;;23.70;99.90;;;;;;5113182;28;20019;-70
2023/07/25 12:14:53;;;;;;;3.75;0.77;;;23.30;99.90;;;;;;5113563;27;20023;-70
2023/07/25 12:17:18;;;;;;;2.38;0.80;;;22.70;99.90;;;;;;5119843;27;20023;-70
2023/07/25 12:19:52;;;;;;;2.72;0.90;;;22.00;99.90;;;;;;5110195;28;20020;-70
2023/07/25 12:22:18;;;;;;;0.73;0.50;;;21.50;99.90;;;;;;5110232;28;20031;-70
2023/07/25 12:24:43;;;;;;;0.85;0.65;;;21.10;99.90;;;;;;5109711;28;20042;-70
2023/07/25 12:27:17;;;;;;;1.38;0.77;;;20.60;99.90;;;;;;5107784;28;20453;-72
2023/07/25 12:29:42;;;;;;;1.80;0.73;;;20.10;99.90;;;;;;5111273;27;20027;-72
2023/07/25 12:32:08;;;;;;;1.85;0.80;;;19.80;99.90;;;;;;5113399;28;20018;-72
2023/07/25 12:34:34;;;;;;;3.38;0.90;;;19.50;99.90;;;;;;5112850;28;20094;-73
2023/07/25 12:37:02;;;;;;;1.20;1.10;;;19.10;99.90;;;;;;5112743;28;20502;-73
2023/07/25 12:39:29;;;;;;;2.40;1.48;;;18.50;99.90;;;;;;5112380;28;20055;-78
2023/07/25 12:41:55;;;;;;;1.92;0.82;;;;;;;;;;5114298;28;20019;-77
2023/07/25 12:44:21;;;;;;;2.08;0.85;;;;;;;;;;5112070;28;20031;-80
2023/07/25 12:46:47;;;;;;;1.83;0.65;;;;;;;;;;5113879;28;20136;-80
2023/07/25 12:49:13;;;;;;;1.63;1.00;;;;;;;;;;5112017;28;20020;-76
2023/07/25 12:51:39;;;;;;;3.95;0.90;;;;;;;;;;5113543;28;20468;-80
2023/07/25 12:54:05;;;;;;;2.72;0.70;;;;;;;;;;5113628;28;20019;-78
2023/07/25 12:56:31;;;;;;;1.80;0.73;;;;;;;;;;5117946;28;20023;-79
2023/07/25 12:58:57;;;;;;;1.33;0.73;;;;;;;;;;5118817;28;20047;-81
2023/07/25 13:01:23;;;;;;;1.42;0.75;;;;;;;;;;5111348;28;20027;-78
2023/07/25 13:03:51;;;;;;;3.63;0.90;;;;;;;;;;5110740;28;20011;-78
2023/07/25 13:06:17;;;;;;;1.95;0.60;;;;;;;;;;5113903;28;20050;-79
2023/07/25 13:08:44;;;;;;;3.08;0.88;;;;;;;;;;5096959;28;20016;-81